createdAt,value
2022-10-15T00:00:36.347Z,100.00
2022-10-15T00:02:48.509Z,100.00
2022-10-15T00:05:01.274Z,100.00
2022-10-15T00:07:13.686Z,100.00
2022-10-15T00:09:15.758Z,100.00
2022-10-15T00:11:20.959Z,100.00
2022-10-15T00:13:23.274Z,100.00
2022-10-15T00:15:25.988Z,99.96
2022-10-15T00:17:39.787Z,100.00
2022-10-15T00:19:51.621Z,100.00
2022-10-15T00:22:05.275Z,99.25
2022-10-15T00:24:17.979Z,99.86
2022-10-15T00:26:25.746Z,99.44
2022-10-15T00:28:31.863Z,98.81
2022-10-15T00:30:36.566Z,98.83
2022-10-15T00:32:48.593Z,98.77
2022-10-15T00:35:01.226Z,98.38
2022-10-15T00:37:13.821Z,98.22
2022-10-15T00:39:17.478Z,98.03
2022-10-15T00:41:25.888Z,98.04
2022-10-15T00:43:50.866Z,97.85
2022-10-15T00:45:54.317Z,97.29
2022-10-15T00:47:56.704Z,97.49
2022-10-15T00:49:58.761Z,96.95
2022-10-15T00:52:10.895Z,97.36
2022-10-15T00:54:14.803Z,97.53
2022-10-15T00:56:21.162Z,97.99
2022-10-15T00:58:28.519Z,97.44
2022-10-15T01:00:31.370Z,97.64
2022-10-15T01:02:34.781Z,97.61
2022-10-15T01:04:37.867Z,97.32
2022-10-15T01:06:40.949Z,97.53
2022-10-15T01:08:45.208Z,96.46
2022-10-15T01:10:53.302Z,96.39
2022-10-15T01:13:01.682Z,96.19
2022-10-15T01:15:08.602Z,96.17
2022-10-15T01:17:19.590Z,96.10
2022-10-15T01:19:40.641Z,96.31
2022-10-15T01:21:59.127Z,96.46
2022-10-15T01:24:28.650Z,96.23
2022-10-15T01:26:33.279Z,96.57
2022-10-15T01:28:47.677Z,96.72
2022-10-15T01:31:02.652Z,95.91
2022-10-15T01:33:16.268Z,96.22
2022-10-15T01:35:25.406Z,96.30
2022-10-15T01:37:41.366Z,95.73
2022-10-15T01:39:51.725Z,95.77
2022-10-15T01:41:58.679Z,95.45
2022-10-15T01:44:11.342Z,95.66
2022-10-15T01:46:47.166Z,96.10
2022-10-15T01:48:58.290Z,95.86
2022-10-15T01:51:04.990Z,95.45
2022-10-15T01:53:10.298Z,95.82
2022-10-15T01:55:16.662Z,95.50
2022-10-15T01:57:21.645Z,95.52
2022-10-15T01:59:28.177Z,95.66
2022-10-15T02:01:30.480Z,96.05
2022-10-15T02:03:32.782Z,95.54
2022-10-15T02:05:48.592Z,95.63
2022-10-15T02:08:15.351Z,95.69
2022-10-15T02:10:59.954Z,95.85
2022-10-15T02:13:45.920Z,96.20
2022-10-15T02:16:11.017Z,96.04
2022-10-15T02:18:44.139Z,95.64
2022-10-15T02:20:59.813Z,95.90
2022-10-15T02:23:05.819Z,95.55
2022-10-15T02:25:14.338Z,95.95
2022-10-15T02:27:18.400Z,96.31
2022-10-15T02:29:25.223Z,95.62
2022-10-15T02:31:32.099Z,95.67
2022-10-15T02:33:36.054Z,95.61
2022-10-15T02:35:39.077Z,95.78
2022-10-15T02:37:47.602Z,95.51
2022-10-15T02:39:53.760Z,95.75
2022-10-15T02:41:57.712Z,95.51
2022-10-15T02:44:00.867Z,95.78
2022-10-15T02:46:03.416Z,95.56
2022-10-15T02:48:06.357Z,95.62
2022-10-15T02:50:09.398Z,95.38
2022-10-15T02:52:11.706Z,95.26
2022-10-15T02:54:15.061Z,94.96
2022-10-15T02:56:17.255Z,95.00
2022-10-15T02:58:19.473Z,95.08
2022-10-15T03:00:21.841Z,94.68
2022-10-15T03:02:24.427Z,94.54
2022-10-15T03:04:27.731Z,94.49
2022-10-15T03:06:30.192Z,94.87
2022-10-15T03:08:32.490Z,94.63
2022-10-15T03:10:36.655Z,94.30
2022-10-15T03:12:39.544Z,94.21
2022-10-15T03:14:41.668Z,94.26
2022-10-15T03:16:43.972Z,94.32
2022-10-15T03:18:47.044Z,94.14
2022-10-15T03:20:56.203Z,94.04
2022-10-15T03:22:58.652Z,94.13
2022-10-15T03:25:00.775Z,94.22
2022-10-15T03:27:06.077Z,94.60
2022-10-15T03:29:08.257Z,94.03
2022-10-15T03:31:17.194Z,94.18
2022-10-15T03:33:25.033Z,94.09
2022-10-15T03:35:28.962Z,93.76
2022-10-15T03:37:31.743Z,94.05
2022-10-15T03:39:34.174Z,93.86
2022-10-15T03:41:40.598Z,94.02
2022-10-15T03:43:43.466Z,94.22
2022-10-15T03:45:47.103Z,93.84
2022-10-15T03:47:54.275Z,94.07
2022-10-15T03:49:58.066Z,93.35
2022-10-15T03:52:03.470Z,93.72
2022-10-15T03:54:05.744Z,92.95
2022-10-15T03:56:14.577Z,93.49
2022-10-15T03:58:16.886Z,93.26
2022-10-15T04:00:27.448Z,93.25
2022-10-15T04:02:33.456Z,93.04
2022-10-15T04:04:35.671Z,92.71
2022-10-15T04:06:38.032Z,92.67
2022-10-15T04:08:43.708Z,92.43
2022-10-15T04:11:02.280Z,91.85
2022-10-15T04:13:04.555Z,92.02
2022-10-15T04:15:09.124Z,92.13
2022-10-15T04:17:14.621Z,91.92
2022-10-15T04:19:20.305Z,92.13
2022-10-15T04:21:33.052Z,91.63
2022-10-15T04:23:38.161Z,91.34
2022-10-15T04:26:12.694Z,91.51
2022-10-15T04:28:17.446Z,91.48
2022-10-15T04:30:21.721Z,91.32
2022-10-15T04:32:29.727Z,90.83
2022-10-15T04:34:32.129Z,91.18
2022-10-15T04:36:34.996Z,91.22
2022-10-15T04:39:05.303Z,90.38
2022-10-15T04:41:12.525Z,90.66
2022-10-15T04:43:37.895Z,90.67
2022-10-15T04:45:42.965Z,91.06
2022-10-15T04:47:46.202Z,90.71
2022-10-15T04:49:50.100Z,90.15
2022-10-15T04:52:21.631Z,89.99
2022-10-15T04:54:28.344Z,89.93
2022-10-15T04:56:36.779Z,89.33
2022-10-15T04:58:39.264Z,88.94
2022-10-15T05:00:41.517Z,88.85
2022-10-15T05:03:09.825Z,88.72
2022-10-15T05:05:18.584Z,88.91
2022-10-15T05:07:31.322Z,88.23
2022-10-15T05:09:36.978Z,88.14
2022-10-15T05:11:40.385Z,88.29
2022-10-15T05:13:47.797Z,88.61
2022-10-15T05:15:50.072Z,88.18
2022-10-15T05:17:53.928Z,87.49
2022-10-15T05:19:57.299Z,87.93
2022-10-15T05:22:02.844Z,87.59
2022-10-15T05:24:07.002Z,87.30
2022-10-15T05:26:35.259Z,86.49
2022-10-15T05:28:38.209Z,86.97
2022-10-15T05:30:41.164Z,86.79
2022-10-15T05:32:43.537Z,85.97
2022-10-15T05:34:47.871Z,85.19
2022-10-15T05:36:51.653Z,84.95
2022-10-15T05:38:58.765Z,84.87
2022-10-15T05:41:01.565Z,84.92
2022-10-15T05:43:03.915Z,85.02
2022-10-15T05:45:06.861Z,84.19
2022-10-15T05:47:12.606Z,84.45
2022-10-15T05:49:16.606Z,84.70
2022-10-15T05:51:28.963Z,85.22
2022-10-15T05:53:37.903Z,84.13
2022-10-15T05:55:43.125Z,83.56
2022-10-15T05:57:45.307Z,83.71
2022-10-15T05:59:47.907Z,83.48
2022-10-15T06:01:51.458Z,83.45
2022-10-15T06:03:56.759Z,82.89
2022-10-15T06:05:59.005Z,83.10
2022-10-15T06:08:01.135Z,82.98
2022-10-15T06:10:05.941Z,83.00
2022-10-15T06:12:11.137Z,82.87
2022-10-15T06:14:15.661Z,82.72
2022-10-15T06:16:23.760Z,82.55
2022-10-15T06:18:26.639Z,81.82
2022-10-15T06:20:41.192Z,80.48
2022-10-15T06:22:53.122Z,80.46
2022-10-15T06:24:56.582Z,80.57
2022-10-15T06:27:01.015Z,80.71
2022-10-15T06:29:03.333Z,80.01
2022-10-15T06:31:07.497Z,80.61
2022-10-15T06:35:13.807Z,79.50
2022-10-15T06:37:16.099Z,79.16
2022-10-15T06:39:18.306Z,78.83
2022-10-15T06:41:26.894Z,79.08
2022-10-15T06:43:31.135Z,78.37
2022-10-15T06:45:37.151Z,78.25
2022-10-15T06:47:45.040Z,78.19
2022-10-15T06:49:47.611Z,78.07
2022-10-15T06:51:49.895Z,78.01
2022-10-15T06:53:52.009Z,78.30
2022-10-15T06:56:12.570Z,78.13
2022-10-15T06:58:17.529Z,78.13
2022-10-15T07:00:19.742Z,78.29
2022-10-15T07:02:25.105Z,78.53
2022-10-15T07:04:28.650Z,78.00
2022-10-15T07:06:30.763Z,77.93
2022-10-15T07:08:33.561Z,78.01
2022-10-15T07:10:35.714Z,78.22
2022-10-15T07:12:37.889Z,77.86
2022-10-15T07:14:42.350Z,78.21
2022-10-15T07:16:44.990Z,77.75
2022-10-15T07:18:47.990Z,76.83
2022-10-15T07:20:50.231Z,77.12
2022-10-15T07:23:00.028Z,77.92
2022-10-15T07:25:05.584Z,77.99
2022-10-15T07:27:08.317Z,77.30
2022-10-15T07:29:20.692Z,77.60
2022-10-15T07:31:23.717Z,76.83
2022-10-15T07:33:25.854Z,76.18
2022-10-15T07:35:34.728Z,75.78
2022-10-15T07:37:37.008Z,75.48
2022-10-15T07:39:41.051Z,75.40
2022-10-15T07:41:43.953Z,75.35
2022-10-15T07:43:46.114Z,74.73
2022-10-15T07:45:49.461Z,74.24
2022-10-15T07:47:52.957Z,74.64
2022-10-15T07:49:55.330Z,74.62
2022-10-15T07:51:57.310Z,73.51
2022-10-15T07:54:00.025Z,74.40
2022-10-15T07:56:10.525Z,74.06
2022-10-15T07:58:12.663Z,74.29
2022-10-15T08:00:15.040Z,73.70
2022-10-15T08:02:19.225Z,73.07
2022-10-15T08:04:21.365Z,72.86
2022-10-15T08:06:24.893Z,72.88
2022-10-15T08:08:27.070Z,72.90
2022-10-15T08:10:57.121Z,72.23
2022-10-15T08:13:11.907Z,72.58
2022-10-15T08:15:14.125Z,72.10
2022-10-15T08:17:16.262Z,72.07
2022-10-15T08:19:18.573Z,71.60
2022-10-15T08:21:20.826Z,71.46
2022-10-15T08:23:22.800Z,70.15
2022-10-15T08:25:29.386Z,70.46
2022-10-15T08:27:34.553Z,69.88
2022-10-15T08:29:39.285Z,69.26
2022-10-15T08:31:41.839Z,68.48
2022-10-15T08:33:46.150Z,67.83
2022-10-15T08:35:48.293Z,67.32
2022-10-15T08:37:54.355Z,66.98
2022-10-15T08:39:56.601Z,66.72
2022-10-15T08:42:05.872Z,65.82
2022-10-15T08:44:24.050Z,65.54
2022-10-15T08:46:36.337Z,64.82
2022-10-15T08:48:46.120Z,64.58
2022-10-15T08:51:10.539Z,63.98
2022-10-15T08:53:16.285Z,64.85
2022-10-15T08:55:20.506Z,64.57
2022-10-15T08:57:36.043Z,63.68
2022-10-15T08:59:58.936Z,64.60
2022-10-15T09:02:08.350Z,63.54
2022-10-15T09:04:41.306Z,63.80
2022-10-15T09:06:44.048Z,64.74
2022-10-15T09:08:48.853Z,63.93
2022-10-15T09:10:55.408Z,64.44
2022-10-15T09:12:57.520Z,64.42
2022-10-15T09:15:01.102Z,64.63
2022-10-15T09:17:14.733Z,64.86
2022-10-15T09:19:22.419Z,64.74
2022-10-15T09:21:28.083Z,64.73
2022-10-15T09:23:30.683Z,65.05
2022-10-15T09:25:36.528Z,64.82
2022-10-15T09:27:47.613Z,64.83
2022-10-15T09:29:58.561Z,65.00
2022-10-15T09:32:22.049Z,65.61
2022-10-15T09:34:39.961Z,65.51
2022-10-15T09:37:14.902Z,65.08
2022-10-15T09:39:28.047Z,65.75
2022-10-15T09:41:50.576Z,65.29
2022-10-15T09:43:57.941Z,65.32
2022-10-15T09:46:05.389Z,65.16
2022-10-15T09:48:18.895Z,64.47
2022-10-15T09:50:21.178Z,64.69
2022-10-15T09:52:55.838Z,64.24
2022-10-15T09:55:03.690Z,64.71
2022-10-15T09:57:10.658Z,64.53
2022-10-15T09:59:23.200Z,64.49
2022-10-15T10:01:26.408Z,64.09
2022-10-15T10:03:33.513Z,64.39
2022-10-15T10:05:37.574Z,64.48
2022-10-15T10:07:42.125Z,64.40
2022-10-15T10:09:57.234Z,64.43
2022-10-15T10:12:11.079Z,64.88
2022-10-15T10:14:34.531Z,64.98
2022-10-15T10:17:08.898Z,65.05
2022-10-15T10:19:15.684Z,65.73
2022-10-15T10:21:26.642Z,66.14
2022-10-15T10:23:39.533Z,66.32
2022-10-15T10:25:42.947Z,66.05
2022-10-15T10:27:46.047Z,66.64
2022-10-15T10:30:01.642Z,65.98
2022-10-15T10:32:21.582Z,65.92
2022-10-15T10:34:33.479Z,65.24
2022-10-15T10:36:39.456Z,65.40
2022-10-15T10:39:15.399Z,64.94
2022-10-15T10:41:18.050Z,64.67
2022-10-15T10:43:27.992Z,63.66
2022-10-15T10:45:30.253Z,63.53
2022-10-15T10:47:38.409Z,63.32
2022-10-15T10:49:58.247Z,62.72
2022-10-15T10:52:00.556Z,62.75
2022-10-15T10:54:05.850Z,62.14
2022-10-15T10:56:14.642Z,62.19
2022-10-15T10:58:26.263Z,61.66
2022-10-15T11:00:55.814Z,61.27
2022-10-15T11:02:58.023Z,61.60
2022-10-15T11:05:00.151Z,61.45
2022-10-15T11:07:24.182Z,60.53
2022-10-15T11:09:29.932Z,60.59
2022-10-15T11:11:49.285Z,60.22
2022-10-15T11:14:20.005Z,59.26
2022-10-15T11:16:32.438Z,60.36
2022-10-15T11:19:06.290Z,59.85
2022-10-15T11:21:46.251Z,59.51
2022-10-15T11:23:51.098Z,60.23
2022-10-15T11:26:11.488Z,59.48
2022-10-15T11:28:28.430Z,59.13
2022-10-15T11:30:35.176Z,59.30
2022-10-15T11:33:07.334Z,58.73
2022-10-15T11:35:53.366Z,57.96
2022-10-15T11:38:34.020Z,58.04
2022-10-15T11:40:45.762Z,58.21
2022-10-15T11:42:58.893Z,58.22
2022-10-15T11:45:26.387Z,57.96
2022-10-15T11:47:53.197Z,58.42
2022-10-15T11:50:16.811Z,58.62
2022-10-15T11:52:37.818Z,58.59
2022-10-15T11:55:02.634Z,58.57
2022-10-15T11:57:11.893Z,58.45
2022-10-15T11:59:35.327Z,57.64
2022-10-15T12:01:43.941Z,57.84
2022-10-15T12:04:02.596Z,57.52
2022-10-15T12:06:17.270Z,57.95
2022-10-15T12:08:33.003Z,57.52
2022-10-15T12:11:13.507Z,57.85
2022-10-15T12:13:41.695Z,58.02
2022-10-15T12:16:12.735Z,58.20
2022-10-15T12:18:23.359Z,58.27
2022-10-15T12:20:27.438Z,58.01
2022-10-15T12:22:38.812Z,58.29
2022-10-15T12:24:50.418Z,58.77
2022-10-15T12:26:52.838Z,58.97
2022-10-15T12:28:59.428Z,58.38
2022-10-15T12:31:06.609Z,58.73
2022-10-15T12:33:29.074Z,58.60
2022-10-15T12:35:38.635Z,58.35
2022-10-15T12:37:43.704Z,58.51
2022-10-15T12:39:52.625Z,58.40
2022-10-15T12:41:56.267Z,58.23
2022-10-15T12:44:09.016Z,58.11
2022-10-15T12:46:13.819Z,58.93
2022-10-15T12:48:16.568Z,58.80
2022-10-15T12:50:24.918Z,59.39
2022-10-15T12:52:55.191Z,59.35
2022-10-15T12:55:32.282Z,59.90
2022-10-15T12:57:34.762Z,60.13
2022-10-15T12:59:46.093Z,60.34
2022-10-15T13:01:52.272Z,60.50
2022-10-15T13:03:56.416Z,60.49
2022-10-15T13:06:15.223Z,60.35
2022-10-15T13:08:26.147Z,60.14
2022-10-15T13:10:35.183Z,60.39
2022-10-15T13:12:37.482Z,60.27
2022-10-15T13:14:48.579Z,59.96
2022-10-15T13:16:51.092Z,60.51
2022-10-15T13:18:57.302Z,60.27
2022-10-15T13:23:31.981Z,60.72
2022-10-15T13:25:34.406Z,61.32
2022-10-15T13:27:37.885Z,61.70
2022-10-15T13:29:40.084Z,61.70
2022-10-15T13:31:45.171Z,62.66
2022-10-15T13:33:56.004Z,62.69
2022-10-15T13:36:06.994Z,63.55
2022-10-15T13:38:22.010Z,63.91
2022-10-15T13:40:30.897Z,64.45
2022-10-15T13:42:46.689Z,64.80
2022-10-15T13:45:18.783Z,65.08
2022-10-15T13:47:39.907Z,65.50
2022-10-15T13:49:42.018Z,65.97
2022-10-15T13:51:48.073Z,67.11
2022-10-15T13:53:50.680Z,67.11
2022-10-15T13:55:55.609Z,67.57
2022-10-15T13:58:05.383Z,68.17
2022-10-15T14:00:19.198Z,68.37
2022-10-15T14:02:21.623Z,68.69
2022-10-15T14:04:24.257Z,69.39
2022-10-15T14:06:27.717Z,70.15
2022-10-15T14:08:35.532Z,70.37
2022-10-15T14:10:37.765Z,70.25
2022-10-15T14:12:39.819Z,71.11
2022-10-15T14:14:48.241Z,70.47
2022-10-15T14:16:50.869Z,71.14
2022-10-15T14:18:56.824Z,71.75
2022-10-15T14:21:00.321Z,71.75
2022-10-15T14:23:02.566Z,71.82
2022-10-15T14:25:09.299Z,72.72
2022-10-15T14:27:12.971Z,72.45
2022-10-15T14:29:37.282Z,72.34
2022-10-15T14:31:41.338Z,72.86
2022-10-15T14:33:44.614Z,73.05
2022-10-15T14:36:03.068Z,72.97
2022-10-15T14:38:16.560Z,73.18
2022-10-15T14:40:20.703Z,73.25
2022-10-15T14:42:37.415Z,72.99
2022-10-15T14:44:48.214Z,73.51
2022-10-15T14:46:58.896Z,73.89
2022-10-15T14:49:01.402Z,74.02
2022-10-15T14:51:06.771Z,74.22
2022-10-15T14:53:16.235Z,74.65
2022-10-15T14:55:24.646Z,75.34
2022-10-15T14:57:31.336Z,75.08
2022-10-15T14:59:37.490Z,75.50
2022-10-15T15:01:40.062Z,75.31
2022-10-15T15:03:47.847Z,75.67
2022-10-15T15:05:55.993Z,76.30
2022-10-15T15:08:00.874Z,76.18
2022-10-15T15:10:08.866Z,76.05
2022-10-15T15:12:17.680Z,76.78
2022-10-15T15:14:27.198Z,77.26
2022-10-15T15:16:29.646Z,77.39
2022-10-15T15:18:31.740Z,77.67
2022-10-15T15:20:33.852Z,77.92
2022-10-15T15:22:36.608Z,77.97
2022-10-15T15:24:38.992Z,78.26
2022-10-15T15:26:40.879Z,78.26
2022-10-15T15:28:43.142Z,77.76
2022-10-15T15:30:45.328Z,78.00
2022-10-15T15:32:48.388Z,78.26
2022-10-15T15:34:52.600Z,78.61
2022-10-15T15:36:54.676Z,78.06
2022-10-15T15:38:58.995Z,78.33
2022-10-15T15:41:04.357Z,78.64
2022-10-15T15:43:06.589Z,78.82
2022-10-15T15:45:22.818Z,79.15
2022-10-15T15:47:27.465Z,79.08
2022-10-15T15:49:30.247Z,78.84
2022-10-15T15:51:33.148Z,79.40
2022-10-15T15:53:36.011Z,79.46
2022-10-15T15:55:41.020Z,79.68
2022-10-15T15:57:43.312Z,79.77
2022-10-15T15:59:45.856Z,79.63
2022-10-15T16:01:48.067Z,79.93
2022-10-15T16:03:51.809Z,79.98
2022-10-15T16:05:54.298Z,80.04
2022-10-15T16:07:56.786Z,80.43
2022-10-15T16:09:59.042Z,81.02
2022-10-15T16:12:02.002Z,81.53
2022-10-15T16:14:09.067Z,80.72
2022-10-15T16:16:11.882Z,80.93
2022-10-15T16:18:13.808Z,82.19
2022-10-15T16:20:17.816Z,81.69
2022-10-15T16:22:19.918Z,81.60
2022-10-15T16:24:22.352Z,82.09
2022-10-15T16:26:24.714Z,82.40
2022-10-15T16:28:27.000Z,82.72
2022-10-15T16:30:29.725Z,83.03
2022-10-15T16:32:32.001Z,83.18
2022-10-15T16:34:34.061Z,84.28
2022-10-15T16:36:36.447Z,83.93
2022-10-15T16:38:41.975Z,84.74
2022-10-15T16:40:46.545Z,84.72
2022-10-15T16:42:50.060Z,85.29
2022-10-15T16:44:52.838Z,86.71
2022-10-15T16:46:57.641Z,85.85
2022-10-15T16:49:00.209Z,86.67
2022-10-15T16:51:09.009Z,86.40
2022-10-15T16:53:11.860Z,87.13
2022-10-15T16:55:16.969Z,86.97
2022-10-15T16:57:19.292Z,87.49
2022-10-15T16:59:21.322Z,88.50
2022-10-15T17:01:29.238Z,88.92
2022-10-15T17:03:33.732Z,88.69
2022-10-15T17:05:36.024Z,89.49
2022-10-15T17:07:41.429Z,89.34
2022-10-15T17:09:45.194Z,90.05
2022-10-15T17:11:48.096Z,90.05
2022-10-15T17:13:58.186Z,90.65
2022-10-15T17:16:20.868Z,90.22
2022-10-15T17:18:24.746Z,90.66
2022-10-15T17:20:34.657Z,90.99
2022-10-15T17:22:37.753Z,90.98
2022-10-15T17:24:40.270Z,91.36
2022-10-15T17:26:52.065Z,91.25
2022-10-15T17:28:56.967Z,91.27
2022-10-15T17:31:08.423Z,91.72
2022-10-15T17:33:13.345Z,91.53
2022-10-15T17:35:18.616Z,91.50
2022-10-15T17:37:23.198Z,90.95
2022-10-15T17:39:25.458Z,91.51
2022-10-15T17:41:30.093Z,91.25
2022-10-15T17:43:37.631Z,91.23
2022-10-15T17:45:42.635Z,91.67
2022-10-15T17:47:45.051Z,91.68
2022-10-15T17:49:47.857Z,91.61
2022-10-15T17:51:50.140Z,92.07
2022-10-15T17:53:56.363Z,91.68
2022-10-15T17:55:59.506Z,92.10
2022-10-15T17:58:01.755Z,91.71
2022-10-15T18:00:04.727Z,92.09
2022-10-15T18:02:14.971Z,92.13
2022-10-15T18:04:23.635Z,91.77
2022-10-15T18:06:27.002Z,91.29
2022-10-15T18:08:29.577Z,91.53
2022-10-15T18:10:32.065Z,91.38
2022-10-15T18:12:34.143Z,91.83
2022-10-15T18:14:37.131Z,91.36
2022-10-15T18:16:41.774Z,91.34
2022-10-15T18:18:57.542Z,91.23
2022-10-15T18:21:14.921Z,91.70
2022-10-15T18:23:19.510Z,91.23
2022-10-15T18:25:22.172Z,91.53
2022-10-15T18:27:24.903Z,91.32
2022-10-15T18:29:30.060Z,92.07
2022-10-15T18:31:32.326Z,91.49
2022-10-15T18:33:40.037Z,91.45
2022-10-15T18:35:44.983Z,91.09
2022-10-15T18:37:47.341Z,90.91
2022-10-15T18:39:50.099Z,91.31
2022-10-15T18:41:52.677Z,91.25
2022-10-15T18:44:04.038Z,90.45
2022-10-15T18:46:07.601Z,90.76
2022-10-15T18:48:10.548Z,90.96
2022-10-15T18:50:13.012Z,90.60
2022-10-15T18:52:28.053Z,90.84
2022-10-15T18:54:39.021Z,91.03
2022-10-15T18:56:41.722Z,90.91
2022-10-15T18:58:44.060Z,91.40
2022-10-15T19:00:46.448Z,91.73
2022-10-15T19:02:59.991Z,91.50
2022-10-15T19:05:02.227Z,91.50
2022-10-15T19:07:05.802Z,91.88
2022-10-15T19:09:13.721Z,91.95
2022-10-15T19:11:17.200Z,91.33
2022-10-15T19:13:19.694Z,91.82
2022-10-15T19:15:21.783Z,91.51
2022-10-15T19:17:24.986Z,91.40
2022-10-15T19:19:28.996Z,91.76
2022-10-15T19:21:32.634Z,91.59
2022-10-15T19:23:35.107Z,91.33
2022-10-15T19:25:41.937Z,91.46
2022-10-15T19:27:44.432Z,91.09
2022-10-15T19:29:46.596Z,91.38
2022-10-15T19:31:49.927Z,91.39
2022-10-15T19:33:58.250Z,91.09
2022-10-15T19:36:01.193Z,90.83
2022-10-15T19:38:03.917Z,90.42
2022-10-15T19:40:08.486Z,90.28
2022-10-15T19:42:10.660Z,90.43
2022-10-15T19:44:14.603Z,90.51
2022-10-15T19:46:17.132Z,90.14
2022-10-15T19:48:23.085Z,90.65
2022-10-15T19:50:25.296Z,90.51
2022-10-15T19:52:33.674Z,90.33
2022-10-15T19:54:36.284Z,90.41
2022-10-15T19:56:38.354Z,90.51
2022-10-15T19:58:43.670Z,90.75
2022-10-15T20:00:49.452Z,90.79
2022-10-15T20:02:52.033Z,90.73
2022-10-15T20:04:54.143Z,90.76
2022-10-15T20:06:56.375Z,90.99
2022-10-15T20:08:59.153Z,90.98
2022-10-15T20:11:01.323Z,91.01
2022-10-15T20:13:03.517Z,91.14
2022-10-15T20:15:06.456Z,91.00
2022-10-15T20:17:08.637Z,91.27
2022-10-15T20:19:12.627Z,91.38
2022-10-15T20:21:17.040Z,90.90
2022-10-15T20:23:19.911Z,91.03
2022-10-15T20:25:22.080Z,91.25
2022-10-15T20:27:24.210Z,91.56
2022-10-15T20:29:27.341Z,90.92
2022-10-15T20:31:33.060Z,91.06
2022-10-15T20:33:38.999Z,91.14
2022-10-15T20:35:42.362Z,91.00
2022-10-15T20:37:44.395Z,90.61
2022-10-15T20:39:46.818Z,90.99
2022-10-15T20:41:49.625Z,91.11
2022-10-15T20:43:55.054Z,91.02
2022-10-15T20:45:57.504Z,90.63
2022-10-15T20:47:59.852Z,90.76
2022-10-15T20:50:07.475Z,90.60
2022-10-15T20:52:09.943Z,90.29
2022-10-15T20:54:13.410Z,90.30
2022-10-15T20:56:15.733Z,90.72
2022-10-15T20:58:17.787Z,90.73
2022-10-15T21:00:19.930Z,91.09
2022-10-15T21:02:21.967Z,90.71
2022-10-15T21:04:23.999Z,90.73
2022-10-15T21:06:26.278Z,90.82
2022-10-15T21:08:28.797Z,90.52
2022-10-15T21:10:30.941Z,90.75
2022-10-15T21:12:33.125Z,90.62
2022-10-15T21:14:35.296Z,91.36
2022-10-15T21:16:37.517Z,90.68
2022-10-15T21:18:39.940Z,90.71
2022-10-15T21:20:42.586Z,90.88
2022-10-15T21:22:47.070Z,90.62
2022-10-15T21:24:49.770Z,90.47
2022-10-15T21:26:51.872Z,90.35
2022-10-15T21:28:59.025Z,90.51
2022-10-15T21:31:05.941Z,90.63
2022-10-15T21:33:08.062Z,90.41
2022-10-15T21:35:11.017Z,90.81
2022-10-15T21:37:13.167Z,90.46
2022-10-15T21:39:16.413Z,90.62
2022-10-15T21:41:18.640Z,90.36
2022-10-15T21:43:20.826Z,90.37
2022-10-15T21:45:22.993Z,90.46
2022-10-15T21:47:25.680Z,90.96
2022-10-15T21:49:28.103Z,90.91
2022-10-15T21:51:33.640Z,90.63
2022-10-15T21:53:37.516Z,90.65
2022-10-15T21:55:40.107Z,90.74
2022-10-15T21:57:43.161Z,90.69
2022-10-15T21:59:45.264Z,91.00
2022-10-15T22:01:50.485Z,91.19
2022-10-15T22:03:57.682Z,91.34
2022-10-15T22:06:00.863Z,90.80
2022-10-15T22:08:02.931Z,91.29
2022-10-15T22:10:05.475Z,91.48
2022-10-15T22:12:07.759Z,91.41
2022-10-15T22:14:12.604Z,91.57
2022-10-15T22:16:16.562Z,91.18
2022-10-15T22:18:18.807Z,91.76
2022-10-15T22:20:24.055Z,91.22
2022-10-15T22:22:26.541Z,91.50
2022-10-15T22:24:29.677Z,91.23
2022-10-15T22:26:38.321Z,91.62
2022-10-15T22:28:41.498Z,91.71
2022-10-15T22:30:44.312Z,92.24
2022-10-15T22:32:46.422Z,92.04
2022-10-15T22:34:48.630Z,91.90
2022-10-15T22:36:51.942Z,91.84
2022-10-15T22:38:56.782Z,92.22
2022-10-15T22:40:59.728Z,91.85
2022-10-15T22:43:03.752Z,92.08
2022-10-15T22:45:06.796Z,92.39
2022-10-15T22:47:09.690Z,92.39
2022-10-15T22:49:13.025Z,92.21
2022-10-15T22:51:16.070Z,92.39
2022-10-15T22:53:18.662Z,92.10
2022-10-15T22:55:20.802Z,91.85
2022-10-15T22:57:23.300Z,92.64
2022-10-15T22:59:25.466Z,92.55
2022-10-15T23:01:30.120Z,92.34
2022-10-15T23:03:32.404Z,92.78
2022-10-15T23:05:34.528Z,92.72
2022-10-15T23:07:38.295Z,92.89
2022-10-15T23:09:40.659Z,92.53
2022-10-15T23:11:42.945Z,92.70
2022-10-15T23:13:45.957Z,93.27
2022-10-15T23:15:47.927Z,93.17
2022-10-15T23:17:52.557Z,93.20
2022-10-15T23:19:54.614Z,93.31
2022-10-15T23:22:00.309Z,93.43
2022-10-15T23:24:04.196Z,93.55
2022-10-15T23:26:06.573Z,93.42
2022-10-15T23:28:09.682Z,93.63
2022-10-15T23:30:24.604Z,93.72
2022-10-15T23:32:27.307Z,94.05
2022-10-15T23:34:29.513Z,93.79
2022-10-15T23:36:33.625Z,93.95
2022-10-15T23:38:35.729Z,93.92
2022-10-15T23:40:37.851Z,94.31
2022-10-15T23:42:40.407Z,94.26
2022-10-15T23:44:43.017Z,94.28
2022-10-15T23:46:45.477Z,94.44
2022-10-15T23:48:47.997Z,94.63
2022-10-15T23:50:50.206Z,94.39
2022-10-15T23:52:52.835Z,94.32
2022-10-15T23:54:54.900Z,94.75
2022-10-15T23:56:57.126Z,94.44
2022-10-15T23:59:01.298Z,94.39
